createdAt,value
2018-05-12T00:01:58.256Z,101695.73
2018-05-12T00:04:26.618Z,101699.27
2018-05-12T00:06:55.728Z,101700.34
2018-05-12T00:09:24.072Z,101702.53
2018-05-12T00:11:52.391Z,101695.31
2018-05-12T00:14:20.721Z,101699.72
2018-05-12T00:16:49.064Z,101698.30
2018-05-12T00:19:17.380Z,101703.05
2018-05-12T00:21:45.719Z,101705.89
2018-05-12T00:24:14.582Z,101700.80
2018-05-12T00:26:42.931Z,101694.30
2018-05-12T00:29:11.259Z,101696.77
2018-05-12T00:31:39.625Z,101694.04
2018-05-12T00:34:07.939Z,101692.38
2018-05-12T00:39:23.573Z,101694.83
2018-05-12T00:41:51.904Z,101695.88
2018-05-12T00:44:20.208Z,101696.60
2018-05-12T00:46:48.634Z,101695.45
2018-05-12T00:49:16.920Z,101692.13
2018-05-12T00:51:45.221Z,101695.84
2018-05-12T00:54:13.579Z,101690.85
2018-05-12T00:56:41.885Z,101688.30
2018-05-12T00:59:10.192Z,101688.45
2018-05-12T01:01:38.963Z,101691.03
2018-05-12T01:04:07.289Z,101687.34
2018-05-12T01:06:36.401Z,101683.99
2018-05-12T01:09:06.491Z,101678.94
2018-05-12T01:11:34.841Z,101678.30
2018-05-12T01:14:03.175Z,101680.87
2018-05-12T01:16:31.547Z,101680.98
2018-05-12T01:18:59.859Z,101675.66
2018-05-12T01:21:28.191Z,101672.62
2018-05-12T01:23:56.717Z,101667.16
2018-05-12T01:26:25.045Z,101671.01
2018-05-12T01:28:53.353Z,101671.83
2018-05-12T01:31:21.715Z,101668.19
2018-05-12T01:33:50.036Z,101665.31
2018-05-12T01:36:18.376Z,101670.58
2018-05-12T01:38:47.491Z,101675.04
2018-05-12T01:41:15.834Z,101676.47
2018-05-12T01:43:44.942Z,101674.39
2018-05-12T01:46:14.343Z,101677.20
2018-05-12T01:48:42.689Z,101678.95
2018-05-12T01:51:10.990Z,101684.45
2018-05-12T01:53:39.359Z,101673.84
2018-05-12T01:56:07.714Z,101678.43
2018-05-12T01:58:36.023Z,101675.22
2018-05-12T02:01:04.360Z,101671.45
2018-05-12T02:03:32.684Z,101671.20
2018-05-12T02:06:00.989Z,101668.07
2018-05-12T02:08:29.950Z,101673.16
2018-05-12T02:10:58.306Z,101666.78
2018-05-12T02:13:26.628Z,101664.89
2018-05-12T02:15:55.736Z,101668.39
2018-05-12T02:18:24.078Z,101666.20
2018-05-12T02:20:52.404Z,101670.48
2018-05-12T02:23:20.760Z,101670.03
2018-05-12T02:25:49.842Z,101667.72
2018-05-12T02:28:18.139Z,101667.94
2018-05-12T02:30:47.747Z,101669.30
2018-05-12T02:33:16.101Z,101680.19
2018-05-12T02:35:45.199Z,101677.83
2018-05-12T02:38:13.572Z,101675.40
2018-05-12T02:40:41.916Z,101671.02
2018-05-12T02:43:10.235Z,101671.47
2018-05-12T02:45:38.620Z,101677.02
2018-05-12T02:48:06.981Z,101672.95
2018-05-12T02:50:35.285Z,101678.20
2018-05-12T02:53:04.879Z,101675.90
2018-05-12T02:55:33.175Z,101680.41
2018-05-12T02:58:01.515Z,101685.00
2018-05-12T03:00:29.888Z,101681.23
2018-05-12T03:02:58.230Z,101676.20
2018-05-12T03:05:26.564Z,101674.05
2018-05-12T03:07:54.934Z,101670.77
2018-05-12T03:10:23.234Z,101676.45
2018-05-12T03:12:51.569Z,101667.61
2018-05-12T03:15:20.407Z,101674.50
2018-05-12T03:17:49.497Z,101672.62
2018-05-12T03:20:17.819Z,101674.20
2018-05-12T03:22:46.198Z,101672.77
2018-05-12T03:25:14.528Z,101671.70
2018-05-12T03:27:42.887Z,101675.60
2018-05-12T03:30:11.216Z,101679.58
2018-05-12T03:32:39.570Z,101681.31
2018-05-12T03:35:07.905Z,101682.89
2018-05-12T03:37:36.484Z,101680.28
2018-05-12T03:40:04.793Z,101678.72
2018-05-12T03:42:33.114Z,101674.78
2018-05-12T03:45:01.443Z,101680.56
2018-05-12T03:47:29.783Z,101681.74
2018-05-12T03:49:58.102Z,101685.30
2018-05-12T03:52:26.456Z,101688.67
2018-05-12T03:54:54.771Z,101689.04
2018-05-12T03:57:23.087Z,101688.58
2018-05-12T03:59:51.651Z,101689.25
2018-05-12T04:02:19.982Z,101683.34
2018-05-12T04:05:06.075Z,101683.86
2018-05-12T04:07:51.882Z,101681.81
2018-05-12T04:10:44.201Z,101687.94
2018-05-12T04:13:12.567Z,101682.69
2018-05-12T04:15:40.944Z,101684.65
2018-05-12T04:18:09.554Z,101675.70
2018-05-12T04:20:37.878Z,101681.16
2018-05-12T04:23:06.205Z,101679.73
2018-05-12T04:25:34.577Z,101680.00
2018-05-12T04:28:02.920Z,101683.08
2018-05-12T04:30:32.012Z,101680.17
2018-05-12T04:33:00.358Z,101683.66
2018-05-12T04:35:29.477Z,101682.68
2018-05-12T04:37:58.576Z,101691.41
2018-05-12T04:40:27.762Z,101695.66
2018-05-12T04:42:56.091Z,101693.72
2018-05-12T04:45:24.392Z,101687.25
2018-05-12T04:47:52.801Z,101684.69
2018-05-12T04:50:21.167Z,101679.48
2018-05-12T04:52:49.504Z,101676.98
2018-05-12T04:55:17.890Z,101692.53
2018-05-12T04:57:46.250Z,101687.42
2018-05-12T05:00:15.328Z,101692.58
2018-05-12T05:02:43.724Z,101700.53
2018-05-12T05:05:12.820Z,101687.49
2018-05-12T05:07:41.940Z,101689.77
2018-05-12T05:10:10.294Z,101702.14
2018-05-12T05:12:39.380Z,101702.28
2018-05-12T05:15:08.490Z,101698.03
2018-05-12T05:17:36.854Z,101706.67
2018-05-12T05:20:05.174Z,101703.84
2018-05-12T05:22:33.587Z,101708.43
2018-05-12T05:25:02.179Z,101709.05
2018-05-12T05:27:30.548Z,101708.89
2018-05-12T05:29:58.892Z,101699.88
2018-05-12T05:32:27.219Z,101696.05
2018-05-12T05:34:55.554Z,101697.66
2018-05-12T05:37:23.901Z,101698.54
2018-05-12T05:39:52.293Z,101712.88
2018-05-12T05:42:20.680Z,101710.38
2018-05-12T05:44:49.012Z,101709.49
2018-05-12T05:47:17.461Z,101704.63
2018-05-12T05:49:45.826Z,101709.86
2018-05-12T05:52:14.134Z,101708.27
2018-05-12T05:54:42.597Z,101712.80
2018-05-12T05:57:10.905Z,101711.28
2018-05-12T05:59:39.223Z,101712.95
2018-05-12T06:02:07.596Z,101711.41
2018-05-12T06:04:36.691Z,101720.34
2018-05-12T06:07:05.802Z,101724.44
2018-05-12T06:09:34.583Z,101720.92
2018-05-12T06:12:02.916Z,101713.89
2018-05-12T06:14:31.218Z,101717.55
2018-05-12T06:16:59.571Z,101718.39
2018-05-12T06:19:27.939Z,101718.50
2018-05-12T06:21:56.257Z,101720.20
2018-05-12T06:24:24.631Z,101725.70
2018-05-12T06:26:52.955Z,101723.81
2018-05-12T06:29:21.263Z,101728.56
2018-05-12T06:31:49.741Z,101733.09
2018-05-12T06:34:18.057Z,101734.33
2018-05-12T06:36:47.156Z,101738.30
2018-05-12T06:39:16.264Z,101723.31
2018-05-12T06:41:45.373Z,101729.19
2018-05-12T06:44:13.711Z,101724.98
2018-05-12T06:46:42.151Z,101724.30
2018-05-12T06:49:10.512Z,101725.84
2018-05-12T06:51:38.928Z,101727.02
2018-05-12T06:54:07.384Z,101729.85
2018-05-12T06:56:35.731Z,101728.77
2018-05-12T06:59:04.086Z,101725.35
2018-05-12T07:01:32.458Z,101727.89
2018-05-12T07:04:00.788Z,101727.09
2018-05-12T07:06:29.176Z,101726.75
2018-05-12T07:08:57.553Z,101730.25
2018-05-12T07:11:25.863Z,101722.91
2018-05-12T07:13:54.395Z,101728.19
2018-05-12T07:16:23.137Z,101727.23
2018-05-12T07:18:51.470Z,101734.87
2018-05-12T07:21:19.823Z,101723.58
2018-05-12T07:23:48.169Z,101730.84
2018-05-12T07:26:16.498Z,101732.20
2018-05-12T07:28:44.836Z,101725.45
2018-05-12T07:31:13.173Z,101719.83
2018-05-12T07:33:41.518Z,101718.28
2018-05-12T07:36:09.857Z,101720.58
2018-05-12T07:38:38.402Z,101720.88
2018-05-12T07:41:07.476Z,101719.84
2018-05-12T07:43:35.801Z,101718.27
2018-05-12T07:46:04.151Z,101726.28
2018-05-12T07:48:33.437Z,101726.54
2018-05-12T07:51:01.774Z,101713.69
2018-05-12T07:53:30.136Z,101713.37
2018-05-12T07:55:58.470Z,101714.89
2018-05-12T07:58:27.592Z,101704.03
2018-05-12T08:00:56.205Z,101713.26
2018-05-12T08:03:24.614Z,101706.09
2018-05-12T08:05:52.898Z,101699.22
2018-05-12T08:08:21.269Z,101699.68
2018-05-12T08:10:49.621Z,101701.94
2018-05-12T08:13:17.969Z,101708.26
2018-05-12T08:15:46.311Z,101710.69
2018-05-12T08:18:14.642Z,101696.55
2018-05-12T08:20:42.953Z,101707.78
2018-05-12T08:23:11.803Z,101704.20
2018-05-12T08:25:40.155Z,101703.45
2018-05-12T08:28:09.301Z,101692.70
2018-05-12T08:30:37.656Z,101699.47
2018-05-12T08:33:06.004Z,101691.66
2018-05-12T08:35:34.339Z,101690.41
2018-05-12T08:38:02.668Z,101687.97
2018-05-12T08:40:31.087Z,101683.50
2018-05-12T08:43:00.106Z,101684.91
2018-05-12T08:45:28.691Z,101688.51
2018-05-12T08:47:57.053Z,101687.56
2018-05-12T08:50:25.396Z,101688.14
2018-05-12T08:52:54.496Z,101680.28
2018-05-12T08:55:23.656Z,101675.94
2018-05-12T08:57:51.961Z,101689.04
2018-05-12T09:00:20.353Z,101682.34
2018-05-12T09:02:49.452Z,101681.19
2018-05-12T09:05:18.543Z,101674.88
2018-05-12T09:07:47.852Z,101678.29
2018-05-12T09:10:16.955Z,101680.19
2018-05-12T09:12:45.308Z,101667.52
2018-05-12T09:15:13.697Z,101672.50
2018-05-12T09:17:42.788Z,101682.08
2018-05-12T09:20:11.898Z,101671.25
2018-05-12T09:22:41.052Z,101671.30
2018-05-12T09:25:09.368Z,101682.38
2018-05-12T09:27:37.750Z,101666.95
2018-05-12T09:30:07.362Z,101678.72
2018-05-12T09:32:35.699Z,101669.33
2018-05-12T09:35:04.052Z,101663.52
2018-05-12T09:37:32.411Z,101671.16
2018-05-12T09:40:00.727Z,101650.19
2018-05-12T09:42:29.192Z,101662.73
2018-05-12T09:44:57.504Z,101657.75
2018-05-12T09:47:25.823Z,101658.70
2018-05-12T09:49:54.158Z,101659.33
2018-05-12T09:52:23.074Z,101654.20
2018-05-12T09:54:51.447Z,101652.81
2018-05-12T09:57:20.544Z,101656.02
2018-05-12T09:59:49.664Z,101654.37
2018-05-12T10:02:18.745Z,101648.72
2018-05-12T10:04:47.838Z,101647.50
2018-05-12T10:07:16.999Z,101644.96
2018-05-12T10:09:45.330Z,101649.09
2018-05-12T10:12:14.420Z,101647.63
2018-05-12T10:14:43.753Z,101642.33
2018-05-12T10:17:12.080Z,101645.66
2018-05-12T10:19:40.384Z,101635.70
2018-05-12T10:22:08.753Z,101636.97
2018-05-12T10:24:37.115Z,101638.05
2018-05-12T10:27:05.550Z,101640.88
2018-05-12T10:29:33.907Z,101636.59
2018-05-12T10:32:02.273Z,101629.44
2018-05-12T10:34:31.352Z,101630.92
2018-05-12T10:37:00.651Z,101629.04
2018-05-12T10:39:28.977Z,101620.77
2018-05-12T10:41:57.390Z,101618.86
2018-05-12T10:44:25.742Z,101614.96
2018-05-12T10:46:54.063Z,101617.70
2018-05-12T10:49:22.401Z,101610.82
2018-05-12T10:51:50.729Z,101605.97
2018-05-12T10:54:19.098Z,101605.50
2018-05-12T10:56:47.434Z,101603.48
2018-05-12T10:59:16.375Z,101607.52
2018-05-12T11:01:44.733Z,101599.08
2018-05-12T11:04:13.032Z,101604.97
2018-05-12T11:06:41.388Z,101600.34
2018-05-12T11:09:09.728Z,101595.25
2018-05-12T11:11:38.032Z,101584.44
2018-05-12T11:14:06.397Z,101587.95
2018-05-12T11:16:34.722Z,101571.64
2018-05-12T11:19:03.050Z,101575.18
2018-05-12T11:21:31.887Z,101577.05
2018-05-12T11:24:00.244Z,101573.97
2018-05-12T11:26:28.616Z,101574.20
2018-05-12T11:28:56.980Z,101573.11
2018-05-12T11:31:25.335Z,101572.31
2018-05-12T11:33:54.424Z,101554.52
2018-05-12T11:36:23.527Z,101565.84
2018-05-12T11:38:52.649Z,101578.14
2018-05-12T11:41:21.025Z,101577.56
2018-05-12T11:43:49.871Z,101573.84
2018-05-12T11:46:18.229Z,101559.13
2018-05-12T11:48:46.581Z,101563.75
2018-05-12T11:51:14.932Z,101564.23
2018-05-12T11:53:43.267Z,101559.27
2018-05-12T11:56:11.634Z,101558.08
2018-05-12T11:58:40.016Z,101559.75
2018-05-12T12:01:08.347Z,101556.00
2018-05-12T12:03:37.538Z,101554.57
2018-05-12T12:06:06.042Z,101538.75
2018-05-12T12:08:34.362Z,101540.02
2018-05-12T12:11:02.683Z,101536.48
2018-05-12T12:13:31.830Z,101541.60
2018-05-12T12:16:00.172Z,101527.03
2018-05-12T12:18:28.496Z,101522.83
2018-05-12T12:20:56.848Z,101523.83
2018-05-12T12:23:25.185Z,101510.12
2018-05-12T12:25:53.518Z,101516.57
2018-05-12T12:28:22.350Z,101513.84
2018-05-12T12:30:50.644Z,101515.20
2018-05-12T12:33:19.069Z,101507.48
2018-05-12T12:35:47.352Z,101499.92
2018-05-12T12:38:15.670Z,101509.13
2018-05-12T12:40:43.975Z,101501.31
2018-05-12T12:43:12.321Z,101498.36
2018-05-12T12:45:40.641Z,101503.22
2018-05-12T12:48:08.979Z,101500.85
2018-05-12T12:50:38.690Z,101494.06
2018-05-12T12:53:07.015Z,101492.23
2018-05-12T12:55:35.342Z,101492.64
2018-05-12T12:58:03.730Z,101496.39
2018-05-12T13:00:32.089Z,101490.40
2018-05-12T13:03:00.411Z,101488.32
2018-05-12T13:05:28.763Z,101487.92
2018-05-12T13:07:57.137Z,101478.22
2018-05-12T13:10:25.507Z,101480.91
2018-05-12T13:12:54.040Z,101478.28
2018-05-12T13:15:22.372Z,101479.58
2018-05-12T13:17:50.680Z,101483.35
2018-05-12T13:20:19.058Z,101478.19
2018-05-12T13:22:47.400Z,101470.91
2018-05-12T13:25:15.724Z,101468.33
2018-05-12T13:27:44.143Z,101461.06
2018-05-12T13:30:12.439Z,101457.55
2018-05-12T13:32:40.740Z,101465.55
2018-05-12T13:35:09.912Z,101460.53
2018-05-12T13:37:38.223Z,101457.19
2018-05-12T13:40:06.557Z,101452.69
2018-05-12T13:42:34.946Z,101446.75
2018-05-12T13:45:03.312Z,101452.33
2018-05-12T13:47:31.682Z,101443.95
2018-05-12T13:50:00.012Z,101449.70
2018-05-12T13:52:28.370Z,101443.71
2018-05-12T13:54:56.702Z,101441.17
2018-05-12T13:57:25.102Z,101444.57
2018-05-12T13:59:53.425Z,101430.77
2018-05-12T14:02:22.533Z,101439.20
2018-05-12T14:04:51.623Z,101432.66
2018-05-12T14:07:20.732Z,101435.23
2018-05-12T14:09:49.063Z,101432.38
2018-05-12T14:12:17.424Z,101433.52
2018-05-12T14:14:45.743Z,101432.69
2018-05-12T14:17:14.832Z,101432.91
2018-05-12T14:19:44.355Z,101420.90
2018-05-12T14:22:13.458Z,101417.69
2018-05-12T14:24:42.555Z,101411.97
2018-05-12T14:27:10.903Z,101424.36
2018-05-12T14:29:39.380Z,101415.66
2018-05-12T14:32:07.767Z,101419.05
2018-05-12T14:34:36.920Z,101419.73
2018-05-12T14:37:05.239Z,101410.48
2018-05-12T14:39:33.577Z,101419.55
2018-05-12T14:42:02.050Z,101413.50
2018-05-12T14:44:30.403Z,101425.41
2018-05-12T14:46:59.521Z,101421.53
2018-05-12T14:49:27.868Z,101423.19
2018-05-12T14:51:56.966Z,101415.20
2018-05-12T14:54:25.269Z,101414.36
2018-05-12T14:56:53.622Z,101415.45
2018-05-12T14:59:22.718Z,101410.11
2018-05-12T15:01:51.780Z,101412.01
2018-05-12T15:04:20.183Z,101410.47
2018-05-12T15:06:48.512Z,101409.77
2018-05-12T15:09:16.830Z,101411.06
2018-05-12T15:11:45.192Z,101413.08
2018-05-12T15:14:13.527Z,101407.66
2018-05-12T15:16:42.632Z,101413.35
2018-05-12T15:19:10.972Z,101409.00
2018-05-12T15:21:39.284Z,101404.42
2018-05-12T15:24:07.652Z,101406.72
2018-05-12T15:26:36.545Z,101411.98
2018-05-12T15:29:05.636Z,101403.34
2018-05-12T15:31:34.716Z,101396.47
2018-05-12T15:40:57.372Z,101389.19
2018-05-12T15:43:25.731Z,101392.72
2018-05-12T15:45:54.079Z,101388.32
2018-05-12T15:48:23.703Z,101386.31
2018-05-12T15:50:52.795Z,101383.45
2018-05-12T15:53:21.892Z,101382.39
2018-05-12T15:55:51.040Z,101380.22
2018-05-12T15:58:19.354Z,101378.48
2018-05-12T16:00:47.696Z,101376.57
2018-05-12T16:03:16.047Z,101378.56
2018-05-12T16:05:44.388Z,101369.22
2018-05-12T16:08:12.712Z,101362.66
2018-05-12T16:10:41.557Z,101359.53
2018-05-12T16:13:09.855Z,101359.92
2018-05-12T16:15:38.941Z,101364.89
2018-05-12T16:18:08.064Z,101357.79
2018-05-12T16:20:36.389Z,101358.05
2018-05-12T16:23:04.680Z,101360.13
2018-05-12T16:25:34.510Z,101359.98
2018-05-12T16:28:02.834Z,101362.43
2018-05-12T16:30:32.979Z,101356.06
2018-05-12T16:33:01.786Z,101352.64
2018-05-12T16:35:30.865Z,101356.09
2018-05-12T16:37:59.191Z,101357.92
2018-05-12T16:40:27.546Z,101356.33
2018-05-12T16:42:56.651Z,101349.67
2018-05-12T16:45:27.285Z,101357.27
2018-05-12T16:47:56.444Z,101348.23
2018-05-12T16:50:24.801Z,101345.81
2018-05-12T16:52:53.136Z,101352.72
2018-05-12T16:55:22.412Z,101344.69
2018-05-12T16:57:50.763Z,101341.47
2018-05-12T17:00:19.106Z,101333.33
2018-05-12T17:02:47.503Z,101333.62
2018-05-12T17:05:15.827Z,101338.97
2018-05-12T17:07:44.180Z,101340.23
2018-05-12T17:10:12.558Z,101343.33
2018-05-12T17:12:40.883Z,101340.54
2018-05-12T17:15:09.233Z,101345.36
2018-05-12T17:17:37.943Z,101339.41
2018-05-12T17:20:06.268Z,101343.02
2018-05-12T17:22:34.632Z,101339.97
2018-05-12T17:25:02.990Z,101332.80
2018-05-12T17:27:31.323Z,101339.72
2018-05-12T17:29:59.659Z,101335.36
2018-05-12T17:32:29.263Z,101330.56
2018-05-12T17:34:57.575Z,101335.01
2018-05-12T17:37:25.893Z,101329.72
2018-05-12T17:39:54.692Z,101324.70
2018-05-12T17:42:23.017Z,101328.97
2018-05-12T17:44:51.323Z,101327.14
2018-05-12T17:47:19.686Z,101325.10
2018-05-12T17:49:48.021Z,101319.86
2018-05-12T17:52:17.131Z,101320.58
2018-05-12T17:54:45.506Z,101327.80
2018-05-12T17:57:14.654Z,101325.47
2018-05-12T17:59:43.556Z,101325.30
2018-05-12T18:02:12.372Z,101329.30
2018-05-12T18:04:41.462Z,101326.08
2018-05-12T18:07:09.787Z,101327.59
2018-05-12T18:09:38.146Z,101327.86
2018-05-12T18:12:06.470Z,101324.26
2018-05-12T18:14:34.803Z,101321.61
2018-05-12T18:17:03.193Z,101325.56
2018-05-12T18:19:31.500Z,101315.11
2018-05-12T18:21:59.825Z,101325.32
2018-05-12T18:24:29.139Z,101317.56
2018-05-12T18:26:57.558Z,101320.11
2018-05-12T18:29:25.907Z,101323.75
2018-05-12T18:31:54.351Z,101318.56
2018-05-12T18:34:23.375Z,101323.44
2018-05-12T18:36:52.487Z,101323.02
2018-05-12T18:39:20.823Z,101321.81
2018-05-12T18:41:49.175Z,101322.66
2018-05-12T18:44:17.590Z,101322.72
2018-05-12T18:46:46.412Z,101322.95
2018-05-12T18:49:14.768Z,101325.64
2018-05-12T18:51:43.873Z,101328.27
2018-05-12T18:54:12.205Z,101332.22
2018-05-12T18:56:40.621Z,101341.64
2018-05-12T18:59:08.884Z,101331.19
2018-05-12T19:01:37.278Z,101328.47
2018-05-12T19:04:05.602Z,101334.12
2018-05-12T19:06:33.945Z,101332.45
2018-05-12T19:09:02.380Z,101338.22
2018-05-12T19:11:30.688Z,101336.66
2018-05-12T19:13:59.004Z,101340.06
2018-05-12T19:16:27.396Z,101354.03
2018-05-12T19:18:55.742Z,101348.34
2018-05-12T19:21:24.084Z,101346.27
2018-05-12T19:23:52.441Z,101350.09
2018-05-12T19:26:20.778Z,101354.75
2018-05-12T19:28:49.129Z,101353.78
2018-05-12T19:31:17.815Z,101356.69
2018-05-12T19:33:46.124Z,101358.92
2018-05-12T19:36:14.468Z,101361.80
2018-05-12T19:38:42.843Z,101360.89
2018-05-12T19:41:11.211Z,101361.54
2018-05-12T19:43:39.571Z,101356.63
2018-05-12T19:46:07.915Z,101356.61
2018-05-12T19:48:36.257Z,101355.56
2018-05-12T19:51:04.623Z,101353.38
2018-05-12T19:53:33.088Z,101360.09
2018-05-12T19:56:01.424Z,101358.78
2018-05-12T19:58:29.744Z,101358.96
2018-05-12T20:00:58.148Z,101358.94
2018-05-12T20:03:26.507Z,101364.38
2018-05-12T20:05:54.832Z,101356.15
2018-05-12T20:08:23.183Z,101354.23
2018-05-12T20:10:51.538Z,101360.41
2018-05-12T20:13:21.701Z,101355.98
2018-05-12T20:15:50.354Z,101361.34
2018-05-12T20:18:18.681Z,101360.18
2018-05-12T20:20:47.812Z,101350.02
2018-05-12T20:23:16.185Z,101352.47
2018-05-12T20:25:44.597Z,101351.78
2018-05-12T20:28:12.895Z,101349.80
2018-05-12T20:34:00.852Z,101347.34
2018-05-12T20:39:12.441Z,101350.75
2018-05-12T20:41:40.777Z,101354.41
2018-05-12T20:44:09.159Z,101359.26
2018-05-12T20:46:37.517Z,101355.89
2018-05-12T20:49:06.650Z,101352.22
2018-05-12T20:51:35.518Z,101353.44
2018-05-12T20:54:04.631Z,101356.58
2018-05-12T20:56:32.978Z,101352.77
2018-05-12T20:59:01.422Z,101359.84
2018-05-12T21:01:29.762Z,101356.88
2018-05-12T21:03:58.085Z,101361.64
2018-05-12T21:06:26.443Z,101357.96
2018-05-12T21:08:54.868Z,101354.88
2018-05-12T21:11:23.178Z,101352.25
2018-05-12T21:13:51.556Z,101356.30
2018-05-12T21:16:19.938Z,101358.84
2018-05-12T21:18:48.252Z,101348.91
2018-05-12T21:21:17.002Z,101350.56
2018-05-12T21:23:45.369Z,101349.20
2018-05-12T21:26:13.684Z,101349.61
2018-05-12T21:28:42.042Z,101351.73
2018-05-12T21:31:10.402Z,101341.73
2018-05-12T21:33:39.575Z,101340.34
2018-05-12T21:36:07.943Z,101346.20
2018-05-12T21:38:36.291Z,101349.48
2018-05-12T21:41:04.618Z,101346.39
2018-05-12T21:43:33.368Z,101343.88
2018-05-12T21:46:01.774Z,101341.44
2018-05-12T21:48:30.096Z,101348.20
2018-05-12T21:50:58.473Z,101354.25
2018-05-12T21:53:27.126Z,101356.77
2018-05-12T21:55:55.495Z,101348.86
2018-05-12T21:58:23.852Z,101357.86
2018-05-12T22:00:52.204Z,101352.98
2018-05-12T22:03:20.527Z,101354.79
2018-05-12T22:05:49.373Z,101353.73
2018-05-12T22:08:18.042Z,101344.63
2018-05-12T22:10:46.456Z,101346.64
2018-05-12T22:13:14.900Z,101335.53
2018-05-12T22:15:43.277Z,101344.42
2018-05-12T22:18:12.389Z,101337.84
2018-05-12T22:20:40.749Z,101339.73
2018-05-12T22:23:09.095Z,101336.98
2018-05-12T22:25:38.171Z,101335.08
2018-05-12T22:28:06.666Z,101341.42
2018-05-12T22:30:35.007Z,101330.42
2018-05-12T22:33:03.346Z,101340.45
2018-05-12T22:35:31.726Z,101338.97
2018-05-12T22:38:00.048Z,101346.05
2018-05-12T22:40:35.284Z,101339.73
2018-05-12T22:43:03.647Z,101337.92
2018-05-12T22:45:32.000Z,101338.98
2018-05-12T22:48:00.836Z,101328.42
2018-05-12T22:50:29.200Z,101327.08
2018-05-12T22:52:58.287Z,101322.53
2018-05-12T22:55:27.425Z,101332.13
2018-05-12T22:57:55.760Z,101324.96
2018-05-12T23:00:33.467Z,101325.70
2018-05-12T23:03:02.547Z,101323.06
2018-05-12T23:05:30.848Z,101325.98
2018-05-12T23:07:59.283Z,101324.92
2018-05-12T23:10:27.588Z,101330.62
2018-05-12T23:12:55.894Z,101329.99
2018-05-12T23:15:24.244Z,101326.41
2018-05-12T23:17:52.605Z,101329.05
2018-05-12T23:20:20.939Z,101329.78
2018-05-12T23:22:49.286Z,101328.27
2018-05-12T23:25:18.377Z,101334.73
2018-05-12T23:27:47.473Z,101331.19
2018-05-12T23:30:16.060Z,101324.12
2018-05-12T23:32:44.407Z,101327.69
2018-05-12T23:35:12.735Z,101322.11
2018-05-12T23:37:41.845Z,101322.95
2018-05-12T23:40:10.224Z,101320.52
2018-05-12T23:42:38.568Z,101323.07
2018-05-12T23:45:06.921Z,101318.07
2018-05-12T23:47:35.262Z,101325.94
2018-05-12T23:50:03.592Z,101322.56
2018-05-12T23:52:32.088Z,101314.05
2018-05-12T23:55:00.467Z,101319.98
2018-05-12T23:57:28.795Z,101305.88
2018-05-12T23:59:57.170Z,101305.94
